Time;durP1;ratioP1;P1;durP2;ratioP2;P2;SDS_P1;SDS_P2;PMS_P1;PMS_P2;Temp;Humidity;BMP_temperature;BMP_pressure;BME280_temperature;BME280_humidity;BME280_pressure;Samples;Min_cycle;Max_cycle;Signal;HPM_P1;HPM_P2
2023/01/16 00:00:33;;;;;;;;;;;;;;;;;;;;;
2023/01/16 00:05:57;;;;;;;7.60;2.10;;;;;;;3.08;97.25;99225.86;217328;1299;94788;-89
2023/01/16 00:11:07;;;;;;;6.30;1.60;;;;;;;3.05;97.38;99218.58;216741;1299;138267;-89
2023/01/16 00:16:52;;;;;;;7.60;1.60;;;;;;;3.04;97.11;99217.55;217033;1302;94529;-88
2023/01/16 00:22:18;;;;;;;5.60;2.30;;;;;;;3.02;97.21;99213.58;216649;1298;138678;-87
2023/01/16 00:27:50;;;;;;;;;;;;;;;;;;;;;
2023/01/16 00:33:05;;;;;;;5.00;1.70;;;;;;;2.96;97.12;99226.77;216561;1299;124851;-87
2023/01/16 00:38:08;;;;;;;7.80;2.20;;;;;;;2.93;97.40;99218.16;217071;1299;94678;-89
2023/01/16 00:43:41;;;;;;;4.90;1.40;;;;;;;2.93;97.37;99219.73;216540;1298;137749;-89
2023/01/16 00:49:08;;;;;;;6.10;2.00;;;;;;;2.99;97.21;99214.48;216515;1299;138477;-88
2023/01/16 00:54:42;;;;;;;5.40;1.40;;;;;;;3.03;97.02;99216.20;216950;1299;94777;-90
2023/01/16 01:00:27;;;;;;;;;;;;;;;;;;;;;
2023/01/16 01:06:28;;;;;;;8.70;1.30;;;;;;;3.18;96.27;99211.16;216855;1299;94680;-88
2023/01/16 01:12:22;;;;;;;6.20;1.60;;;;;;;3.21;95.87;99207.58;216662;1299;138069;-90
2023/01/16 01:18:17;;;;;;;6.30;1.80;;;;;;;3.20;95.95;99203.14;217250;1299;94611;-88
2023/01/16 01:24:18;;;;;;;6.80;1.70;;;;;;;3.16;96.17;99205.15;216681;1298;137675;-90
2023/01/16 01:30:19;;;;;;;5.50;1.80;;;;;;;3.11;96.09;99215.07;216741;1299;139014;-89
2023/01/16 01:36:06;;;;;;;5.40;1.50;;;;;;;3.06;96.26;99215.51;217051;1299;94636;-90
2023/01/16 01:47:58;;;;;;;7.50;1.60;;;;;;;2.94;96.60;99193.42;216901;1298;94953;-87
2023/01/16 01:53:54;;;;;;;5.60;2.30;;;;;;;2.87;96.85;99185.04;215647;1305;138454;-89
2023/01/16 02:00:16;;;;;;;5.90;1.80;;;;;;;2.81;97.32;99189.25;216710;1299;138627;-90
2023/01/16 02:06:05;;;;;;;5.80;2.40;;;;;;;2.75;97.51;99193.41;216807;1299;94588;-88
2023/01/16 02:12:15;;;;;;;;;;;;;;;;;;;;;
2023/01/16 02:24:39;;;;;;;5.80;1.50;;;;;;;2.59;97.94;99184.89;216626;1299;138114;-89
2023/01/16 02:30:57;;;;;;;3.20;1.40;;;;;;;2.60;98.36;99173.89;216844;1298;228417;-89
2023/01/16 02:43:16;;;;;;;3.00;1.20;;;;;;;2.63;98.33;99168.68;215254;1307;138209;-89
2023/01/16 02:55:43;;;;;;;5.00;1.50;;;;;;;2.69;98.43;99161.07;217187;1299;138687;-90
2023/01/16 03:01:56;;;;;;;6.20;1.60;;;;;;;2.74;98.33;99158.36;216660;1299;138574;-90
2023/01/16 03:08:19;;;;;;;5.20;1.40;;;;;;;2.77;98.34;99154.41;217137;1299;110030;-90
2023/01/16 03:14:00;;;;;;;4.80;1.40;;;;;;;2.79;98.07;99154.36;216683;1299;140576;-89
2023/01/16 03:20:10;;;;;;;6.40;1.60;;;;;;;2.79;98.01;99155.20;216804;1299;138119;-88
2023/01/16 03:26:25;;;;;;;3.50;1.40;;;;;;;2.76;98.02;99149.89;217280;1298;109724;-89
2023/01/16 03:32:45;;;;;;;6.40;1.70;;;;;;;2.72;98.28;99141.40;216281;1299;138202;-90
2023/01/16 03:38:46;;;;;;;5.00;1.40;;;;;;;2.66;98.37;99146.55;217227;1299;109810;-89
2023/01/16 03:44:48;;;;;;;5.10;1.50;;;;;;;2.61;98.42;99151.56;216833;1299;138623;-89
2023/01/16 03:50:48;;;;;;;5.30;2.10;;;;;;;2.54;98.57;99154.59;216759;1297;138498;-90
2023/01/16 03:56:53;;;;;;;;;;;;;;;;;;;;;
2023/01/16 04:02:51;;;;;;;7.30;1.90;;;;;;;2.42;98.84;99153.39;216836;1299;138042;-88
2023/01/16 04:08:58;;;;;;;7.10;1.70;;;;;;;2.39;99.07;99144.64;217248;1299;109774;-89
2023/01/16 04:14:59;;;;;;;5.30;1.80;;;;;;;2.34;99.24;99139.48;216785;1299;139332;-87
2023/01/16 04:20:38;;;;;;;;;;;;;;;;;;;;;
2023/01/16 04:26:29;;;;;;;;;;;;;;;;;;;;;
2023/01/16 04:32:30;;;;;;;8.10;2.00;;;;;;;2.22;99.64;99125.65;216570;1299;138439;-89
2023/01/16 04:38:32;;;;;;;5.50;1.70;;;;;;;2.18;99.67;99121.89;216999;1299;104896;-88
2023/01/16 04:44:33;;;;;;;7.80;1.80;;;;;;;2.14;99.89;99112.81;216390;1299;137736;-89
2023/01/16 04:50:34;;;;;;;6.00;2.20;;;;;;;2.10;99.92;99112.33;216411;1299;138581;-90
2023/01/16 04:56:36;;;;;;;7.80;2.10;;;;;;;2.05;99.98;99111.59;216943;1299;105131;-88
2023/01/16 05:02:37;;;;;;;6.20;2.30;;;;;;;1.99;99.95;99105.80;216481;1299;138417;-90
2023/01/16 05:08:34;;;;;;;5.40;2.20;;;;;;;1.93;100.00;99097.52;217158;1299;103697;-90
2023/01/16 05:14:51;;;;;;;6.30;2.30;;;;;;;1.88;100.00;99092.66;216722;1299;139268;-90
2023/01/16 05:20:26;;;;;;;;;;;;;;;;;;;;;
2023/01/16 05:26:28;;;;;;;9.00;2.30;;;;;;;1.79;100.00;99076.34;217415;1299;107150;-91
2023/01/16 05:32:40;;;;;;;;;;;;;;;;;;;;;
2023/01/16 05:38:32;;;;;;;6.20;2.50;;;;;;;1.77;100.00;99083.58;217314;1299;105013;-90
2023/01/16 05:44:36;;;;;;;;;;;;;;;;;;;;;
2023/01/16 05:50:08;;;;;;;10.60;2.60;;;;;;;1.79;100.00;99074.33;216976;1299;139197;-91
2023/01/16 05:56:11;;;;;;;8.30;2.80;;;;;;;1.82;100.00;99065.07;217669;1299;104870;-91
2023/01/16 06:24:09;;;;;;;;;;;;;;;;;;;;;
2023/01/16 10:10:58;;;;;;;13.20;5.20;;;;;;;5.60;94.40;98871.23;190150;1295;95215;-92
2023/01/16 17:21:05;;;;;;;35.70;16.00;;;;;;;3.15;98.26;98239.29;217478;1292;95212;31
2023/01/16 22:27:50;;;;;;;;;;;;;;;;;;;;;
2023/01/16 22:33:53;;;;;;;50.70;28.70;;;;;;;1.73;100.00;97811.46;216508;1302;138462;-86
2023/01/16 22:51:56;;;;;;;41.70;21.50;;;;;;;1.81;100.00;97795.00;216329;1299;139115;-85
2023/01/16 22:57:48;;;;;;;;;;;;;;;;;;;;;
2023/01/16 23:03:59;;;;;;;40.50;20.70;;;;;;;1.82;100.00;97789.83;216409;1299;138588;-85
2023/01/16 23:09:59;;;;;;;40.60;19.10;;;;;;;1.83;100.00;97784.86;216107;1299;138817;-86
2023/01/16 23:22:02;;;;;;;40.80;20.10;;;;;;;1.84;100.00;97746.90;216320;1299;139237;-85
2023/01/16 23:28:03;;;;;;;35.70;20.20;;;;;;;1.84;100.00;97730.32;216758;1299;109619;-88
2023/01/16 23:34:06;;;;;;;40.00;20.80;;;;;;;1.83;100.00;97725.77;216433;1299;138864;-88
2023/01/16 23:40:05;;;;;;;40.50;20.30;;;;;;;1.84;100.00;97711.27;216373;1299;141088;-87
2023/01/16 23:46:04;;;;;;;;;;;;;;;;;;;;;
2023/01/16 23:51:59;;;;;;;39.40;19.20;;;;;;;1.94;100.00;97688.11;216319;1299;138718;-87
2023/01/16 23:58:00;;;;;;;38.00;20.20;;;;;;;2.01;100.00;97685.02;216829;1299;104786;-87
